Terminal Aerodrome Forecast
Issued by NWS Paducah, KY

Home | Current Version | Previous Version | Graphics & Text | Print | Product List | Glossary On
Versions: 1 2 3 4 5 6 7 8 9 10 11 12 13 14 15 16 17 18 19 20 21 22 23 24
000
FTUS43 KPAH 281720
TAFPAH
TAF
KPAH 281720Z 2818/2918 09003KT P6SM SCT050
     FM290100 VRB02KT P6SM SKC
     FM290800 00000KT 3SM BR SKC
      TEMPO 2908/2912 1SM BR BCFG SCT002
     FM291300 06007KT P6SM SCT050=

USA.gov is the U.S. government's official web portal to all federal, state and local government web resources and services.